Time;durP1;ratioP1;P1;durP2;ratioP2;P2;SDS_P1;SDS_P2;PMS_P1;PMS_P2;Temp;Humidity;BMP_temperature;BMP_pressure;BME280_temperature;BME280_humidity;BME280_pressure;Samples;Min_cycle;Max_cycle;Signal;HPM_P1;HPM_P2
2021/12/07 00:00:44;;;;;;;20.33;4.93;;;;;;;-4.55;80.84;101302.75;4810151;29;20035;-78
2021/12/07 00:03:10;;;;;;;6.53;1.65;;;;;;;-4.61;79.98;101300.47;4808098;29;20127;-78
2021/12/07 00:05:36;;;;;;;5.75;2.17;;;;;;;-4.47;80.92;101304.91;4808438;29;20471;-78
2021/12/07 00:08:02;;;;;;;1.98;0.80;;;;;;;-4.47;80.36;101304.06;4809678;29;20066;-78
2021/12/07 00:10:27;;;;;;;1.10;0.52;;;;;;;-4.57;79.81;101293.25;4810336;29;20323;-78
2021/12/07 00:12:54;;;;;;;1.65;0.85;;;;;;;-4.49;80.54;101285.78;4809675;29;20035;-78
2021/12/07 00:15:22;;;;;;;1.10;0.68;;;;;;;-4.50;80.32;101294.63;4793599;29;20373;-78
2021/12/07 00:17:48;;;;;;;1.30;0.68;;;;;;;-4.50;80.03;101294.63;4808025;29;20031;-79
2021/12/07 00:20:16;;;;;;;2.10;0.90;;;;;;;-4.44;80.37;101293.38;4807219;29;20046;-78
2021/12/07 00:22:44;;;;;;;1.25;0.65;;;;;;;-4.47;80.41;101291.78;4810999;29;20035;-78
2021/12/07 00:25:10;;;;;;;1.70;0.80;;;;;;;-4.49;80.26;101296.28;4816453;29;20030;-78
2021/12/07 00:27:36;;;;;;;1.48;0.85;;;;;;;-4.57;79.82;101282.75;4811038;29;20027;-78
2021/12/07 00:30:06;;;;;;;2.80;1.15;;;;;;;-4.45;80.60;101294.31;4820583;29;20045;-78
2021/12/07 00:32:36;;;;;;;2.10;0.90;;;;;;;-4.51;80.22;101291.13;4807696;29;20042;-78
2021/12/07 00:37:41;;;;;;;1.40;0.75;;;;;;;-4.58;80.48;101276.66;4807278;29;20069;-78
2021/12/07 00:40:09;;;;;;;1.77;0.85;;;;;;;-4.60;80.51;101270.66;4805408;29;20066;-78
2021/12/07 00:42:35;;;;;;;2.13;0.80;;;;;;;-4.62;79.96;101269.06;4807836;29;20056;-78
2021/12/07 00:45:02;;;;;;;3.25;0.90;;;;;;;-4.50;80.51;101270.97;4807468;29;20458;-78
2021/12/07 00:47:29;;;;;;;1.60;0.93;;;;;;;-4.49;80.37;101264.78;4805908;29;20476;-78
2021/12/07 00:49:54;;;;;;;3.13;0.70;;;;;;;-4.61;79.81;101250.56;4808288;29;20067;-77
2021/12/07 00:52:20;;;;;;;1.23;0.82;;;;;;;-4.55;79.63;101259.88;4806676;29;20043;-78
2021/12/07 00:54:45;;;;;;;1.48;0.77;;;;;;;-4.51;78.82;101261.38;4792404;29;20222;-78
2021/12/07 00:57:11;;;;;;;1.48;0.80;;;;;;;-4.46;79.63;101267.22;4808025;29;20418;-77
2021/12/07 00:59:36;;;;;;;2.25;0.85;;;;;;;-4.44;79.72;101267.13;4808207;29;20335;-78
2021/12/07 01:02:08;;;;;;;2.20;0.95;;;;;;;-4.38;79.95;101272.00;4807963;29;20371;-78
2021/12/07 01:04:34;;;;;;;1.10;0.60;;;;;;;-4.44;79.47;101265.34;4809167;29;20035;-78
2021/12/07 01:07:03;;;;;;;2.00;0.73;;;;;;;-4.51;79.25;101261.38;4813778;29;20046;-78
2021/12/07 01:25:52;;;;;;;0.98;0.77;;;;;;;-4.44;78.90;101267.97;4807951;29;20123;-78
2021/12/07 01:28:41;;;;;;;1.42;0.70;;;;;;;-4.33;78.94;101265.56;4809049;29;20039;-78
2021/12/07 01:37:02;;;;;;;1.20;0.60;;;;;;;-4.40;78.71;101255.47;4807838;29;20069;-78
2021/12/07 02:00:22;;;;;;;1.42;0.70;;;;;;;-4.41;79.29;101231.00;4806571;29;20350;-78
2021/12/07 02:02:47;;;;;;;1.42;0.55;;;;;;;-4.41;78.62;101241.50;4806196;29;20034;-78
2021/12/07 02:05:13;;;;;;;0.90;0.60;;;;;;;-4.32;79.10;101240.13;4807208;29;20126;-78
2021/12/07 02:07:39;;;;;;;1.02;0.68;;;;;;;-4.36;78.81;101243.88;4791016;29;20118;-78
2021/12/07 02:10:11;;;;;;;1.05;0.70;;;;;;;-4.71;79.05;101173.28;4806287;29;20129;-78
2021/12/07 02:12:43;;;;;;;0.85;0.50;;;;;;;-4.28;79.02;101241.63;4819068;29;20086;-78
2021/12/07 02:15:13;;;;;;;1.20;0.60;;;;;;;-4.45;78.39;101231.28;4807359;29;20035;-78
2021/12/07 02:17:40;;;;;;;1.15;0.63;;;;;;;-4.38;78.56;101243.94;4808198;29;20030;-78
2021/12/07 02:20:07;;;;;;;1.00;0.65;;;;;;;-4.39;78.92;101238.81;4817817;29;20122;-78
2021/12/07 02:22:34;;;;;;;1.40;0.70;;;;;;;-4.36;78.56;101242.09;4807141;29;20091;-78
2021/12/07 02:25:00;;;;;;;2.80;0.90;;;;;;;-4.30;78.91;101240.88;4806431;29;20073;-77
2021/12/07 02:27:26;;;;;;;1.88;0.80;;;;;;;-4.21;79.06;101242.09;4809349;29;20034;-77
2021/12/07 02:29:51;;;;;;;1.13;0.57;;;;;;;-4.48;78.87;101213.94;4813875;29;20023;-78
2021/12/07 02:32:17;;;;;;;0.90;0.55;;;;;;;-4.32;78.51;101234.88;4806082;29;20035;-79
2021/12/07 02:34:53;;;;;;;1.23;0.63;;;;;;;-4.31;79.14;101231.28;4796762;29;20023;-78
2021/12/07 02:37:26;;;;;;;1.35;0.60;;;;;;;-4.33;78.98;101239.28;4803833;29;20055;-78
2021/12/07 02:39:52;;;;;;;0.70;0.50;;;;;;;-4.15;79.50;101242.56;4800730;29;20046;-78
2021/12/07 02:42:18;;;;;;;0.80;0.60;;;;;;;-4.09;79.53;101247.44;4806836;29;20061;-78
2021/12/07 02:44:44;;;;;;;0.90;0.43;;;;;;;-4.19;79.35;101229.72;4802799;29;20027;-78
2021/12/07 02:47:09;;;;;;;1.65;0.63;;;;;;;-4.21;79.02;101231.59;4804729;29;20032;-78
2021/12/07 02:49:35;;;;;;;2.05;0.60;;;;;;;-4.79;78.99;101123.88;4806671;29;20028;-78
2021/12/07 02:52:03;;;;;;;1.40;0.73;;;;;;;-4.06;78.88;101238.53;4804343;29;20066;-78
2021/12/07 02:54:28;;;;;;;1.58;0.60;;;;;;;-4.09;78.84;101241.34;4807280;29;20346;-78
2021/12/07 02:56:54;;;;;;;1.05;0.65;;;;;;;-4.03;79.47;101233.94;4806307;29;20042;-78
2021/12/07 02:59:21;;;;;;;1.00;0.57;;;;;;;-4.08;78.91;101227.25;4806365;29;20035;-78
2021/12/07 03:01:55;;;;;;;0.70;0.47;;;;;;;-4.08;79.00;101230.72;4819809;29;20121;-78
2021/12/07 03:04:26;;;;;;;2.58;0.90;;;;;;;-4.17;78.69;101233.06;4806474;29;20035;-78
2021/12/07 03:07:04;;;;;;;1.33;0.60;;;;;;;-4.12;79.10;101231.03;4805501;29;20042;-78
2021/12/07 03:28:20;;;;;;;2.83;0.60;;;;;;;-4.02;78.32;101224.25;4812323;29;20056;-78
2021/12/07 03:30:45;;;;;;;1.67;0.50;;;;;;;-4.00;78.65;101224.19;4815455;29;20035;-78
2021/12/07 03:33:11;;;;;;;0.68;0.45;;;;;;;-3.95;78.72;101219.47;4812328;29;20407;-78
2021/12/07 03:35:38;;;;;;;3.72;0.70;;;;;;;-3.91;78.85;101227.06;4808025;29;20042;-78
2021/12/07 03:38:07;;;;;;;0.95;0.60;;;;;;;-3.92;78.75;101222.75;4817486;29;20111;-77
2021/12/07 03:40:33;;;;;;;0.73;0.50;;;;;;;-3.98;78.13;101228.38;4807126;29;20083;-78
2021/12/07 03:43:00;;;;;;;0.70;0.57;;;;;;;-3.95;78.68;101222.94;4809464;29;20199;-78
2021/12/07 03:45:26;;;;;;;0.93;0.50;;;;;;;-3.89;78.47;101226.97;4808241;29;20038;-78
2021/12/07 03:47:52;;;;;;;0.95;0.60;;;;;;;-3.90;78.30;101225.31;4810628;29;20030;-78
2021/12/07 03:50:21;;;;;;;1.05;0.60;;;;;;;-3.93;78.52;101225.47;4809813;29;20046;-78
2021/12/07 03:52:47;;;;;;;0.93;0.50;;;;;;;-4.00;78.27;101225.03;4807424;29;20054;-78
2021/12/07 03:55:12;;;;;;;2.28;0.98;;;;;;;-3.82;78.64;101223.03;4809005;29;20335;-78
2021/12/07 03:57:38;;;;;;;0.88;0.57;;;;;;;-3.82;78.55;101239.63;4806656;29;20050;-78
2021/12/07 04:00:08;;;;;;;1.25;0.70;;;;;;;-3.96;78.22;101233.56;4799521;29;20042;-78
2021/12/07 04:02:39;;;;;;;1.75;0.73;;;;;;;-3.84;78.58;101244.16;4798304;29;20031;-78
2021/12/07 04:05:12;;;;;;;1.63;0.45;;;;;;;-3.87;78.08;101239.09;4808657;29;20027;-78
2021/12/07 04:07:40;;;;;;;1.35;0.60;;;;;;;-3.98;78.05;101235.44;4807627;29;20031;-78
2021/12/07 04:10:07;;;;;;;1.35;0.60;;;;;;;-3.85;78.90;101236.34;4809435;29;20110;-78
2021/12/07 04:12:35;;;;;;;1.08;0.60;;;;;;;-3.91;78.67;101224.44;4806624;29;20444;-77
2021/12/07 04:15:03;;;;;;;1.65;0.60;;;;;;;-3.74;78.54;101246.19;4809011;29;20033;-78
2021/12/07 04:17:28;;;;;;;2.33;0.70;;;;;;;-3.86;78.67;101238.16;4807496;29;20041;-78
2021/12/07 04:19:54;;;;;;;0.65;0.43;;;;;;;-4.15;78.77;101174.25;4809897;29;20042;-78
2021/12/07 04:22:19;;;;;;;1.65;0.50;;;;;;;-3.73;77.98;101240.84;4809207;29;20030;-78
2021/12/07 04:24:45;;;;;;;1.10;0.68;;;;;;;-3.78;78.34;101241.13;4810858;29;20042;-78
2021/12/07 04:27:10;;;;;;;1.85;0.60;;;;;;;-3.65;78.82;101246.47;4817964;29;20482;-78
2021/12/07 04:29:35;;;;;;;0.70;0.55;;;;;;;-3.68;78.45;101245.81;4800255;29;20030;-77
2021/12/07 04:32:01;;;;;;;0.95;0.55;;;;;;;-3.75;78.68;101247.13;4808161;29;20096;-77
2021/12/07 04:34:28;;;;;;;0.70;0.55;;;;;;;-3.65;79.16;101250.88;4807535;29;20034;-77
2021/12/07 04:36:54;;;;;;;1.15;0.60;;;;;;;-3.71;78.54;101248.63;4809101;29;20130;-77
2021/12/07 04:39:20;;;;;;;1.25;0.60;;;;;;;-3.77;78.26;101249.88;4802775;29;20027;-78
2021/12/07 04:41:48;;;;;;;1.42;0.63;;;;;;;-3.71;78.63;101243.38;4808209;29;20440;-77
2021/12/07 04:44:14;;;;;;;1.00;0.60;;;;;;;-3.66;78.64;101242.16;4812627;29;20042;-77
2021/12/07 04:46:50;;;;;;;0.85;0.55;;;;;;;-3.67;78.36;101244.91;4789988;29;20526;-77
2021/12/07 04:49:59;;;;;;;1.75;0.60;;;;;;;-3.59;78.30;101245.25;4805841;29;20066;-78
2021/12/07 05:00:06;;;;;;;0.70;0.50;;;;;;;-3.62;78.79;101254.16;4826749;29;20129;-77
2021/12/07 05:02:33;;;;;;;1.77;0.70;;;;;;;-3.64;78.78;101244.66;4816773;29;20038;-78
2021/12/07 05:04:58;;;;;;;1.55;0.50;;;;;;;-3.73;78.17;101238.22;4807928;29;20039;-78
2021/12/07 05:07:32;;;;;;;2.25;0.60;;;;;;;-3.65;78.63;101241.19;4807500;29;20045;-78
2021/12/07 05:10:23;;;;;;;;;;;;;;;-3.64;78.03;101247.31;4807004;29;20043;-78
2021/12/07 05:39:52;;;;;;;1.25;0.70;;;;;;;-3.47;79.66;101238.38;4807738;29;20053;-78
2021/12/07 05:42:17;;;;;;;0.90;0.50;;;;;;;-3.39;79.58;101242.19;4809868;29;20038;-77
2021/12/07 05:44:43;;;;;;;0.70;0.50;;;;;;;-3.41;79.42;101244.09;4806460;29;20576;-78
2021/12/07 05:47:09;;;;;;;0.85;0.60;;;;;;;-3.33;79.80;101243.56;4808071;29;20038;-78
2021/12/07 05:49:35;;;;;;;1.50;0.70;;;;;;;-3.44;79.71;101232.91;4811299;29;20115;-78
2021/12/07 05:52:01;;;;;;;1.00;0.70;;;;;;;-3.45;79.96;101233.84;4811150;29;20031;-78
2021/12/07 05:54:26;;;;;;;1.67;0.50;;;;;;;-3.39;79.54;101231.66;4813647;29;20509;-80
2021/12/07 05:56:52;;;;;;;1.88;0.60;;;;;;;-3.44;79.60;101232.91;4808158;29;20046;-78
2021/12/07 05:59:17;;;;;;;0.98;0.50;;;;;;;-3.41;79.73;101236.19;4804722;29;20377;-78
2021/12/07 06:01:43;;;;;;;0.98;0.47;;;;;;;-3.51;79.61;101223.69;4817637;29;20068;-78
2021/12/07 06:04:08;;;;;;;2.03;0.60;;;;;;;-3.41;80.14;101233.56;4806413;29;20030;-78
2021/12/07 06:06:34;;;;;;;1.00;0.60;;;;;;;-3.42;79.46;101225.75;4821191;29;20523;-78
2021/12/07 06:08:59;;;;;;;1.80;0.80;;;;;;;-3.37;79.98;101232.41;4807487;29;20074;-77
2021/12/07 06:11:25;;;;;;;1.80;0.70;;;;;;;-3.43;80.74;101226.69;4802466;29;20050;-77
2021/12/07 06:13:52;;;;;;;35.10;23.67;;;;;;;-3.48;80.70;101226.13;4788790;29;20355;-77
2021/12/07 06:16:18;;;;;;;3.63;2.83;;;;;;;-3.57;80.68;101215.28;4789203;29;20381;-77
2021/12/07 06:18:44;;;;;;;28.48;17.92;;;;;;;-3.42;80.74;101226.59;4805203;29;20041;-77
2021/12/07 06:21:10;;;;;;;1.88;1.38;;;;;;;-3.47;80.99;101228.69;4806620;29;20054;-77
2021/12/07 06:23:36;;;;;;;5.43;4.93;;;;;;;-3.47;80.67;101218.16;4804406;29;20441;-78
2021/12/07 06:26:03;;;;;;;7.72;5.28;;;;;;;-3.42;80.67;101220.47;4806076;29;20454;-77
2021/12/07 06:28:29;;;;;;;4.35;3.78;;;;;;;-3.39;80.82;101229.03;4806338;29;20039;-78
2021/12/07 06:30:54;;;;;;;2.25;1.42;;;;;;;-3.48;80.93;101221.72;4804186;29;20112;-78
2021/12/07 06:33:21;;;;;;;2.63;1.02;;;;;;;-3.44;80.94;101231.13;4804149;29;20049;-77
2021/12/07 06:35:49;;;;;;;2.55;0.93;;;;;;;-3.44;81.16;101230.28;4807004;29;20096;-76
2021/12/07 06:38:18;;;;;;;1.27;0.77;;;;;;;-3.27;80.71;101231.81;4804400;29;20071;-77
2021/12/07 06:40:44;;;;;;;1.95;0.80;;;;;;;-3.28;81.10;101227.47;4807290;29;20390;-77
2021/12/07 06:43:09;;;;;;;1.70;0.80;;;;;;;-3.34;81.07;101226.13;4805138;29;20038;-77
2021/12/07 06:45:35;;;;;;;1.67;0.73;;;;;;;-3.34;81.14;101216.44;4818045;29;20091;-77
2021/12/07 06:48:01;;;;;;;1.13;0.60;;;;;;;-3.33;81.04;101215.47;4804754;29;20509;-77
2021/12/07 06:50:27;;;;;;;2.72;0.77;;;;;;;-3.41;81.17;101209.88;4805251;29;20045;-77
2021/12/07 06:52:53;;;;;;;1.20;0.63;;;;;;;-3.39;80.82;101222.91;4804076;29;20038;-77
2021/12/07 06:55:19;;;;;;;2.33;0.93;;;;;;;-3.33;81.34;101225.16;4805998;29;20043;-77
2021/12/07 06:57:52;;;;;;;2.42;1.00;;;;;;;-3.37;80.94;101214.00;4805203;29;20580;-78
2021/12/07 07:00:19;;;;;;;4.72;1.00;;;;;;;-3.20;80.95;101227.84;4807492;29;20045;-77
2021/12/07 07:02:54;;;;;;;3.05;1.33;;;;;;;-3.17;81.31;101228.47;4814425;29;20050;-77
2021/12/07 07:05:20;;;;;;;2.05;1.25;;;;;;;-3.03;81.03;101229.38;4808618;29;20035;-77
2021/12/07 07:07:46;;;;;;;1.95;0.80;;;;;;;-2.99;80.79;101233.47;4809704;29;20094;-77
2021/12/07 07:10:17;;;;;;;1.35;0.80;;;;;;;-2.92;80.63;101240.84;4803306;29;20479;-77
2021/12/07 07:12:44;;;;;;;1.77;0.88;;;;;;;-2.95;80.93;101242.84;4805330;29;20039;-77
2021/12/07 07:15:10;;;;;;;1.77;0.80;;;;;;;-2.88;80.86;101254.66;4807714;29;20082;-77
2021/12/07 07:17:37;;;;;;;1.67;0.82;;;;;;;-2.87;80.52;101246.69;4797186;29;20034;-78
2021/12/07 07:20:05;;;;;;;1.65;1.00;;;;;;;-2.87;81.14;101244.03;4806449;29;20129;-77
2021/12/07 07:22:32;;;;;;;1.75;1.02;;;;;;;-2.85;81.18;101242.16;4805680;29;20046;-77
2021/12/07 07:24:57;;;;;;;1.75;0.95;;;;;;;-3.01;81.18;101219.56;4809160;29;20378;-77
2021/12/07 07:27:23;;;;;;;2.47;1.20;;;;;;;-2.86;80.87;101229.09;4812162;29;20011;-77
2021/12/07 07:29:49;;;;;;;1.48;1.20;;;;;;;-2.83;80.71;101237.63;4813723;29;20389;-77
2021/12/07 07:32:14;;;;;;;2.80;1.10;;;;;;;-2.83;80.91;101224.47;4804763;29;20037;-77
2021/12/07 07:34:39;;;;;;;2.78;1.00;;;;;;;-2.83;81.39;101237.63;4798418;29;20035;-77
2021/12/07 07:37:11;;;;;;;2.00;0.70;;;;;;;-3.00;80.81;101226.53;4805032;29;20039;-77
2021/12/07 07:39:39;;;;;;;1.38;1.05;;;;;;;-2.90;81.51;101233.72;4804560;29;20058;-77
2021/12/07 07:42:05;;;;;;;2.42;0.70;;;;;;;-2.95;81.44;101225.25;4808958;29;20038;-78
2021/12/07 07:44:30;;;;;;;1.63;1.00;;;;;;;-3.00;81.28;101219.47;4807587;29;20068;-77
2021/12/07 07:46:57;;;;;;;2.10;0.93;;;;;;;-2.88;81.34;101218.66;4805167;29;20135;-77
2021/12/07 07:49:22;;;;;;;1.52;1.27;;;;;;;-2.88;81.56;101225.69;4803094;29;20041;-77
2021/12/07 07:51:48;;;;;;;4.97;1.13;;;;;;;-2.80;81.83;101220.78;4802837;29;20137;-77
2021/12/07 07:54:14;;;;;;;1.50;0.80;;;;;;;-2.78;81.26;101224.16;4803391;29;20050;-77
2021/12/07 07:56:40;;;;;;;3.28;0.90;;;;;;;-2.88;81.28;101226.56;4797621;29;20035;-77
2021/12/07 07:59:05;;;;;;;2.85;1.02;;;;;;;-2.93;81.86;101217.28;4805630;29;20038;-78
2021/12/07 08:01:32;;;;;;;4.68;2.40;;;;;;;-2.71;81.38;101237.78;4806822;29;20091;-77
2021/12/07 08:04:00;;;;;;;7.35;3.88;;;;;;;-2.78;81.43;101210.13;4797211;29;20415;-77
2021/12/07 08:06:26;;;;;;;14.50;4.57;;;;;;;-2.84;81.49;101233.31;4801765;29;20030;-77
2021/12/07 08:08:51;;;;;;;2.83;0.98;;;;;;;-2.77;81.64;101217.94;4800336;29;20038;-77
2021/12/07 08:11:17;;;;;;;1.75;1.20;;;;;;;-2.75;81.45;101223.94;4811670;29;20034;-78
2021/12/07 08:13:43;;;;;;;2.25;1.13;;;;;;;-2.61;81.28;101233.56;4805969;29;20081;-77
2021/12/07 08:16:15;;;;;;;2.65;2.00;;;;;;;-2.68;81.37;101221.72;4806528;29;20091;-77
2021/12/07 08:18:45;;;;;;;1.35;1.00;;;;;;;-3.05;81.71;101158.38;4807730;29;20052;-77
2021/12/07 08:21:11;;;;;;;1.20;0.80;;;;;;;-2.59;81.64;101231.66;4809079;29;20114;-77
2021/12/07 08:23:38;;;;;;;1.70;1.02;;;;;;;-2.58;81.48;101233.38;4808750;29;20038;-77
2021/12/07 08:26:05;;;;;;;2.28;1.35;;;;;;;-2.58;81.90;101236.00;4808141;29;20043;-77
2021/12/07 08:28:31;;;;;;;4.63;1.10;;;;;;;-2.58;81.72;101221.94;4804505;29;20051;-77
2021/12/07 08:30:56;;;;;;;1.55;1.08;;;;;;;-2.62;81.95;101232.72;4803625;29;20046;-77
2021/12/07 08:33:22;;;;;;;4.53;1.10;;;;;;;-2.70;82.05;101218.38;4803744;29;20091;-77
2021/12/07 08:35:47;;;;;;;3.25;1.13;;;;;;;-2.56;82.33;101220.91;4800236;29;20133;-77
2021/12/07 08:38:13;;;;;;;1.77;1.00;;;;;;;-2.57;82.43;101228.94;4802264;29;20043;-77
2021/12/07 08:40:40;;;;;;;1.45;1.00;;;;;;;-2.48;82.26;101226.50;4804038;29;20031;-78
2021/12/07 08:43:14;;;;;;;2.40;1.02;;;;;;;-2.49;81.90;101230.06;4810430;29;20045;-77
2021/12/07 08:45:41;;;;;;;1.40;0.90;;;;;;;-2.48;81.80;101231.78;4803289;29;20532;-77
2021/12/07 08:48:08;;;;;;;1.30;0.90;;;;;;;-2.46;82.51;101237.78;4802037;29;20043;-78
2021/12/07 08:50:33;;;;;;;1.45;0.95;;;;;;;-2.43;82.16;101236.72;4802166;29;20556;-77
2021/12/07 08:53:03;;;;;;;2.17;0.90;;;;;;;-2.58;82.09;101227.22;4794122;29;20038;-77
2021/12/07 09:01:01;;;;;;;3.13;0.98;;;;;;;-2.34;81.76;101220.28;4795554;29;20050;-77
2021/12/07 09:03:27;;;;;;;3.28;1.08;;;;;;;-2.32;81.41;101233.34;4805726;29;20030;-77
2021/12/07 09:05:53;;;;;;;2.63;0.80;;;;;;;-2.16;81.82;101233.97;4799056;29;20039;-77
2021/12/07 09:08:19;;;;;;;2.28;0.75;;;;;;;-2.18;81.96;101231.47;4799628;29;20041;-77
2021/12/07 09:10:44;;;;;;;2.08;0.88;;;;;;;-2.21;81.48;101241.38;4805752;29;20062;-78
2021/12/07 09:13:10;;;;;;;1.63;0.85;;;;;;;-2.35;81.24;101221.25;4803769;29;20411;-78
2021/12/07 09:15:36;;;;;;;1.33;0.65;;;;;;;-2.22;81.70;101223.84;4799281;29;20034;-77
2021/12/07 09:18:03;;;;;;;1.02;0.70;;;;;;;-2.06;81.23;101242.09;4818767;29;20096;-77
2021/12/07 09:20:29;;;;;;;1.73;0.75;;;;;;;-2.02;81.39;101247.06;4800088;29;20042;-77
2021/12/07 09:22:55;;;;;;;2.50;1.13;;;;;;;-2.09;81.47;101240.50;4804036;29;20058;-77
2021/12/07 09:25:21;;;;;;;1.42;0.90;;;;;;;-1.99;81.40;101244.19;4802830;29;20122;-77
2021/12/07 09:27:46;;;;;;;1.27;0.73;;;;;;;-1.94;81.21;101244.72;4815559;29;20042;-78
2021/12/07 09:30:15;;;;;;;1.63;0.68;;;;;;;-2.04;81.18;101225.22;4811934;29;20075;-77
2021/12/07 09:32:42;;;;;;;3.67;1.50;;;;;;;-1.92;81.01;101239.31;4806861;29;20069;-77
2021/12/07 09:35:10;;;;;;;2.25;1.05;;;;;;;-1.97;81.08;101238.81;4814984;29;20026;-78
2021/12/07 09:37:37;;;;;;;1.27;0.90;;;;;;;-1.88;81.45;101234.72;4800227;29;20050;-78
2021/12/07 09:40:06;;;;;;;2.00;1.08;;;;;;;-1.85;81.83;101235.34;4801608;29;20046;-77
2021/12/07 09:42:31;;;;;;;2.47;1.30;;;;;;;-1.86;81.28;101231.00;4806278;29;20027;-78
2021/12/07 09:44:57;;;;;;;1.73;1.00;;;;;;;-1.84;81.89;101241.44;4814078;29;20035;-78
2021/12/07 09:47:24;;;;;;;1.42;1.00;;;;;;;-1.80;81.39;101235.00;4803633;29;20035;-77
2021/12/07 09:49:49;;;;;;;4.15;1.30;;;;;;;-1.82;81.47;101227.22;4801571;29;20130;-78
2021/12/07 09:52:15;;;;;;;1.90;1.02;;;;;;;-1.78;82.00;101235.75;4801860;29;20039;-77
2021/12/07 09:54:41;;;;;;;1.77;1.20;;;;;;;-1.76;81.99;101236.47;4802413;29;20042;-77
2021/12/07 09:57:07;;;;;;;3.13;1.35;;;;;;;-1.79;82.38;101242.78;4786342;29;20052;-77
2021/12/07 09:59:33;;;;;;;1.70;1.10;;;;;;;-1.70;82.21;101247.41;4798784;29;20035;-78
2021/12/07 10:01:59;;;;;;;2.08;0.90;;;;;;;-1.70;82.92;101241.31;4808619;29;20098;-77
2021/12/07 10:04:27;;;;;;;1.25;0.85;;;;;;;-1.74;82.74;101218.75;4815608;29;20466;-77
2021/12/07 10:06:56;;;;;;;1.20;0.85;;;;;;;-1.60;83.02;101239.69;4820136;29;20053;-77
2021/12/07 10:09:21;;;;;;;1.63;1.17;;;;;;;-1.52;83.10;101247.91;4805456;29;20484;-78
2021/12/07 10:11:52;;;;;;;1.63;0.95;;;;;;;-1.59;83.61;101230.84;4800642;29;20154;-77
2021/12/07 10:14:19;;;;;;;3.25;1.08;;;;;;;-1.52;83.16;101223.34;4807621;29;20481;-77
2021/12/07 10:16:50;;;;;;;1.58;1.05;;;;;;;-1.51;83.68;101220.56;4806483;29;20047;-78
2021/12/07 10:19:38;;;;;;;2.72;1.10;;;;;;;-1.61;83.95;101208.16;4800746;29;20466;-77
2021/12/07 10:22:07;;;;;;;2.40;1.02;;;;;;;-1.40;83.78;101242.69;4801059;29;20034;-77
2021/12/07 10:24:47;;;;;;;1.25;0.80;;;;;;;-1.39;84.06;101239.09;4805437;29;20048;-77
2021/12/07 10:27:29;;;;;;;3.30;1.10;;;;;;;-1.35;84.44;101240.59;4799976;29;20110;-78
2021/12/07 10:29:55;;;;;;;3.38;1.10;;;;;;;-1.36;84.57;101245.00;4812858;29;20045;-78
2021/12/07 10:32:20;;;;;;;2.40;1.15;;;;;;;-1.35;84.48;101238.78;4798097;29;20122;-78
2021/12/07 10:34:46;;;;;;;2.88;1.02;;;;;;;-1.46;84.92;101244.84;4804528;29;20039;-77
2021/12/07 10:37:17;;;;;;;3.03;1.20;;;;;;;-1.49;85.05;101231.00;4811874;29;20145;-78
2021/12/07 10:39:44;;;;;;;1.95;1.10;;;;;;;-1.43;85.27;101231.41;4805042;29;20637;-78
2021/12/07 10:42:19;;;;;;;5.72;1.20;;;;;;;-1.60;85.53;101205.38;4793380;29;20082;-78
2021/12/07 10:44:45;;;;;;;1.77;1.20;;;;;;;-1.36;85.29;101233.59;4805368;29;20152;-77
2021/12/07 10:47:12;;;;;;;1.73;1.20;;;;;;;-1.76;85.60;101176.63;4802707;29;20050;-77
2021/12/07 10:49:51;;;;;;;4.10;1.30;;;;;;;-1.53;85.79;101240.09;4805751;29;20037;-77
2021/12/07 10:52:29;;;;;;;2.30;1.15;;;;;;;-1.56;85.90;101233.22;4809026;29;20084;-77
2021/12/07 10:55:15;;;;;;;1.20;0.90;;;;;;;-1.48;85.94;101237.97;4807862;29;20030;-77
2021/12/07 10:58:07;;;;;;;2.83;1.00;;;;;;;-1.52;85.97;101247.91;4811349;29;20030;-78
2021/12/07 11:00:36;;;;;;;1.20;0.90;;;;;;;-1.52;86.21;101240.00;4818277;29;20035;-77
2021/12/07 11:03:06;;;;;;;1.33;0.70;;;;;;;-1.55;86.16;101236.75;4820193;29;20480;-77
2021/12/07 11:05:43;;;;;;;1.50;1.00;;;;;;;-1.72;87.09;101232.69;4803803;29;20378;-77
2021/12/07 11:08:09;;;;;;;2.10;1.15;;;;;;;-1.63;86.59;101242.56;4803693;29;20544;-77
2021/12/07 11:10:40;;;;;;;2.80;0.95;;;;;;;-1.88;87.43;101216.25;4804213;29;20027;-77
2021/12/07 11:13:16;;;;;;;1.65;0.88;;;;;;;-1.73;87.64;101230.97;4807055;29;20034;-77
2021/12/07 11:15:51;;;;;;;1.77;0.88;;;;;;;-1.69;86.99;101217.47;4813428;29;20481;-78
2021/12/07 11:18:18;;;;;;;;;;;;;;;-1.74;87.29;101213.47;4800839;29;20092;-77
2021/12/07 11:20:43;;;;;;;1.77;1.13;;;;;;;-1.79;87.37;101212.94;4802444;29;19928;-79
2021/12/07 11:23:14;;;;;;;1.75;0.98;;;;;;;-1.71;86.84;101214.09;4806761;29;20046;-78
2021/12/07 11:31:24;;;;;;;2.53;1.20;;;;;;;-1.65;87.01;101202.25;4801954;29;20111;-78
2021/12/07 11:34:09;;;;;;;2.33;1.48;;;;;;;-1.58;87.13;101202.66;4800605;29;20031;-78
2021/12/07 11:36:48;;;;;;;3.10;1.73;;;;;;;-1.70;87.62;101193.81;4803874;29;20461;-77
2021/12/07 11:39:22;;;;;;;3.50;1.13;;;;;;;-1.61;87.54;101192.31;4794199;29;20474;-78
2021/12/07 11:41:51;;;;;;;2.30;0.80;;;;;;;-1.66;87.70;101197.91;4797710;29;20038;-77
2021/12/07 11:44:19;;;;;;;2.83;1.15;;;;;;;-1.77;88.00;101182.03;4801943;29;20066;-77
2021/12/07 11:46:49;;;;;;;2.40;0.98;;;;;;;-1.94;88.75;101176.16;4806516;29;20050;-78
2021/12/07 11:49:19;;;;;;;1.65;0.90;;;;;;;-1.79;88.83;101194.47;4808087;29;20369;-77
2021/12/07 11:51:47;;;;;;;2.75;1.13;;;;;;;-1.77;88.32;101196.06;4804124;29;20031;-78
2021/12/07 11:54:15;;;;;;;5.18;1.10;;;;;;;-1.67;88.37;101190.97;4804938;29;20160;-78
2021/12/07 11:56:44;;;;;;;2.55;1.08;;;;;;;-1.68;88.02;101192.75;4801447;29;20043;-77
2021/12/07 11:59:11;;;;;;;2.53;1.10;;;;;;;-1.69;88.13;101179.66;4803580;29;20031;-78
2021/12/07 12:01:37;;;;;;;3.38;1.05;;;;;;;-1.75;88.31;101193.31;4809135;29;20035;-79
2021/12/07 12:04:04;;;;;;;3.53;1.10;;;;;;;-1.73;88.19;101199.31;4808200;29;20119;-78
2021/12/07 12:06:30;;;;;;;1.73;1.10;;;;;;;-1.63;88.07;101197.69;4812609;29;20042;-78
2021/12/07 12:08:57;;;;;;;2.13;0.95;;;;;;;-1.60;87.78;101205.38;4812778;29;20117;-78
2021/12/07 12:11:39;;;;;;;5.93;1.10;;;;;;;-1.66;87.65;101201.41;4808916;29;20022;-76
2021/12/07 12:14:13;;;;;;;2.75;1.23;;;;;;;-1.65;88.09;101202.25;4810080;29;20126;-78
2021/12/07 12:17:08;;;;;;;2.60;0.98;;;;;;;-1.57;88.00;101209.63;4824184;29;20062;-78
2021/12/07 12:20:10;;;;;;;2.63;1.05;;;;;;;-1.48;87.39;101220.34;4815061;29;20891;-78
2021/12/07 12:22:59;;;;;;;2.08;1.05;;;;;;;-1.88;88.12;101219.72;4806493;29;20023;-77
2021/12/07 12:25:27;;;;;;;2.53;1.25;;;;;;;-1.77;88.48;101218.97;4808647;29;20038;-78
2021/12/07 12:27:55;;;;;;;4.70;1.30;;;;;;;-1.76;88.53;101204.81;4803972;29;20030;-77
2021/12/07 12:30:53;;;;;;;2.03;1.33;;;;;;;-1.75;88.86;101188.03;4801889;29;20035;-77
2021/12/07 12:33:19;;;;;;;2.53;1.00;;;;;;;-1.83;88.88;101185.94;4799818;29;20047;-77
2021/12/07 12:35:54;;;;;;;1.85;1.00;;;;;;;-1.90;88.38;101169.69;4804388;29;20053;-77
2021/12/07 12:38:28;;;;;;;1.45;1.13;;;;;;;-1.77;88.44;101197.84;4802552;29;20050;-77
2021/12/07 12:41:06;;;;;;;1.70;1.00;;;;;;;-1.69;88.07;101201.63;4802595;29;20118;-77
2021/12/07 12:43:59;;;;;;;3.47;1.20;;;;;;;-1.76;87.64;101186.34;4807083;29;20034;-78
2021/12/07 12:46:31;;;;;;;5.25;1.08;;;;;;;-1.91;88.17;101183.84;4803018;29;20051;-77
2021/12/07 12:48:59;;;;;;;2.63;1.30;;;;;;;-1.99;88.74;101173.00;4809564;29;20043;-77
2021/12/07 12:51:30;;;;;;;2.55;1.30;;;;;;;-1.78;88.89;101191.75;4802466;29;20106;-78
2021/12/07 12:53:56;;;;;;;3.17;1.33;;;;;;;-1.87;88.55;101186.28;4801063;29;20031;-78
2021/12/07 12:56:25;;;;;;;2.85;1.63;;;;;;;-1.79;88.36;101178.66;4800409;29;20030;-78
2021/12/07 12:58:56;;;;;;;2.65;1.17;;;;;;;-1.93;88.93;101185.75;4808352;29;20038;-77
2021/12/07 13:01:33;;;;;;;1.98;1.20;;;;;;;-1.76;88.29;101179.25;4820209;29;20035;-77
2021/12/07 13:04:20;;;;;;;3.30;1.50;;;;;;;-1.71;87.87;101177.16;4811010;29;20548;-77
2021/12/07 13:06:53;;;;;;;1.67;1.15;;;;;;;-1.88;88.88;101158.22;4807025;29;20614;-78
2021/12/07 13:09:39;;;;;;;2.55;1.40;;;;;;;-1.77;88.61;101164.41;4811324;29;20041;-77
2021/12/07 13:12:09;;;;;;;2.60;1.35;;;;;;;-2.04;88.50;101159.31;4805981;29;20046;-77
2021/12/07 13:14:52;;;;;;;3.00;1.42;;;;;;;-1.74;88.36;101181.81;4797162;29;20023;-77
2021/12/07 13:17:26;;;;;;;3.60;1.33;;;;;;;-1.94;88.90;101181.44;4807086;29;20494;-77
2021/12/07 13:20:16;;;;;;;1.50;1.20;;;;;;;-1.90;88.56;101182.06;4807375;29;20098;-78
2021/12/07 13:23:00;;;;;;;2.53;1.48;;;;;;;-1.83;88.61;101179.81;4799372;29;20066;-77
2021/12/07 13:25:43;;;;;;;2.08;1.40;;;;;;;-2.01;89.05;101179.34;4797879;29;20455;-78